Latest Weather Observations for Geraldton Airport

IDW60801

Issued at 11:22 am WST Thursday 30 May 2024 (issued every 10 minutes, with the page automatically refreshed every 10 minutes)

About weather observations | Map of weather stations | Latest weather observations for WA | Other Formats
Station Details ID: 008315 Name: GERALDTON AIRPORT Lat: -28.80 Lon: 114.70 Height: 29.7 m
Data from the previous 72 hours. | See also: Recent months at Geraldton Airport
Date/Time
WST
Temp
°C
App
Temp
°C
Dew
Point
°C
Rel
Hum
%
Delta-T
°C
Wind Press
QNH
hPa
Press
MSL
hPa
Rain since
9am
mm
Dir  Spd
km/h
Gust
km/h
Spd
kts
Gust
kts
30/11:00am 19.7 17.5 12.2 62 4.2 N 15 22 8 12 1019.7 1019.7 0.0
30/10:30am 18.9 16.3 13.3 70 3.2 N 19 22 10 12 1020.0 1020.0 0.0
30/10:00am 16.6 13.5 12.2 75 2.4 NNE 20 24 11 13 1020.0 1020.0 0.0
30/09:30am 15.5 13.1 12.8 84 1.5 NNE 17 24 9 13 1019.9 1019.9 0.0
30/09:00am 13.5 10.2 10.9 84 1.4 NE 19 22 10 12 1019.7 1019.7 1.2
30/08:30am 12.7 10.4 10.4 86 1.2 ENE 13 17 7 9 1019.6 1019.6 1.0
30/08:00am 12.3 8.6 10.2 87 1.1 NE 20 24 11 13 1019.1 1019.1 1.0
30/07:30am 11.5 7.2 9.4 87 1.1 NNE 22 26 12 14 1018.5 1018.5 1.0
30/07:00am 11.4 7.8 9.7 89 0.9 NNE 19 22 10 12 1018.2 1018.2 1.0
30/06:30am 11.7 7.8 9.6 87 1.1 NNE 20 24 11 13 1017.9 1017.9 1.0
30/06:00am 12.1 8.6 10.3 89 0.9 NNE 19 24 10 13 1017.8 1017.8 1.0
30/05:30am 11.6 8.1 10.2 91 0.7 NE 19 22 10 12 1017.4 1017.4 1.0
30/05:00am 11.5 8.0 10.1 91 0.7 NE 19 24 10 13 1017.3 1017.3 1.0
30/04:30am 11.4 8.2 10.1 92 0.7 NE 17 20 9 11 1017.4 1017.4 1.0
30/04:00am 11.4 7.7 10.1 92 0.7 NE 20 26 11 14 1017.6 1017.6 1.0
30/03:30am 11.5 7.9 9.9 90 0.8 NNE 19 24 10 13 1017.8 1017.8 1.0
30/03:00am 12.4 8.4 10.3 87 1.1 NNE 22 26 12 14 1018.1 1018.1 1.0
30/02:30am 12.1 9.0 10.3 89 0.9 NNE 17 20 9 11 1018.2 1018.2 1.0
30/02:00am 12.0 8.6 10.4 90 0.8 NNE 19 24 10 13 1018.1 1018.1 1.0
30/01:30am 12.5 9.1 10.7 89 0.9 NE 19 24 10 13 1018.3 1018.3 1.0
30/01:00am 13.1 10.6 11.0 87 1.1 E 15 19 8 10 1018.3 1018.3 1.0
30/12:30am 12.9 9.7 11.1 89 0.9 NNE 19 22 10 12 1017.9 1017.9 0.8
30/12:00am 13.1 9.5 10.6 85 1.3 N 20 26 11 14 1017.8 1017.8 0.8
 
Date/Time
WST
Temp
°C
App
Temp
°C
Dew
Point
°C
Rel
Hum
%
Delta-T
°C
Wind Press
QNH
hPa
Press
MSL
hPa
Rain since
9am
mm
Dir  Spd
km/h
Gust
km/h
Spd
kts
Gust
kts
29/11:30pm 13.1 10.3 11.3 89 1.0 NE 17 20 9 11 1018.0 1018.0 0.8
29/11:00pm 13.3 10.2 11.7 90 0.9 NNE 19 22 10 12 1018.4 1018.4 0.8
29/10:30pm 13.4 10.1 11.6 89 1.0 NE 20 26 11 14 1018.5 1018.5 0.8
29/10:00pm 13.9 11.9 11.6 86 1.2 NNE 13 17 7 9 1018.3 1018.3 0.8
29/09:30pm 14.1 12.1 11.6 85 1.3 NE 13 15 7 8 1018.2 1018.2 0.8
29/09:00pm 15.2 13.9 9.8 70 2.8 WSW 7 24 4 13 1018.2 1018.2 0.6
29/08:30pm 14.3 12.8 10.7 79 1.9 NE 9 11 5 6 1017.8 1017.8 0.4
29/08:00pm 15.0 13.2 9.6 70 2.8 ESE 9 11 5 6 1017.6 1017.6 0.4
29/07:30pm 15.5 12.8 9.0 65 3.3 SSE 13 15 7 8 1017.4 1017.4 0.4
29/07:00pm 16.6 12.7 9.5 63 3.7 SSW 20 24 11 13 1017.1 1017.1 0.4
29/06:30pm 16.9 13.8 8.8 59 4.2 SSW 15 19 8 10 1017.1 1017.1 0.4
29/06:00pm 16.2 13.1 8.7 61 3.8 SSW 15 19 8 10 1016.7 1016.7 0.4
29/05:30pm 17.3 12.6 9.2 59 4.2 SSW 24 32 13 17 1016.3 1016.3 0.4
29/05:00pm 17.3 13.8 10.2 63 3.8 SSW 19 26 10 14 1016.1 1016.1 0.4
29/04:30pm 17.1 12.8 10.7 66 3.4 WSW 24 35 13 19 1016.0 1016.0 0.4
29/04:00pm 17.9 13.9 10.3 61 4.1 S 22 35 12 19 1015.6 1015.6 0.4
29/03:30pm 17.4 14.2 9.8 61 4.0 SSW 17 22 9 12 1015.8 1015.8 0.4
29/03:00pm 17.2 10.8 10.8 66 3.4 S 35 46 19 25 1015.5 1015.5 0.4
29/02:50pm 18.4 13.2 11.5 64 3.8 SSW 30 43 16 23 1015.4 1015.4 0.4
29/02:30pm 18.2 10.6 9.0 55 4.8 SW 39 50 21 27 1015.0 1015.0 0.4
29/02:00pm 20.5 13.3 5.7 38 7.3 SW 33 43 18 23 1014.7 1014.7 0.4
29/01:30pm 20.5 13.4 8.2 45 6.4 SW 35 48 19 26 1014.7 1014.7 0.4
29/01:00pm 19.8 11.9 7.9 46 6.1 SW 39 46 21 25 1014.8 1014.8 0.4
29/12:32pm 19.8 14.3 9.1 50 5.6 SW 28 46 15 25 1014.8 1014.8 0.4
29/12:30pm 19.7 14.8 8.4 48 5.9 SW 24 44 13 24 1014.8 1014.8 0.4
29/12:00pm 17.7 13.3 11.7 68 3.3 WSW 26 33 14 18 1015.6 1015.6 0.4
29/11:30am 18.5 11.1 9.8 57 4.6 SW 39 52 21 28 1015.5 1015.5 0.4
29/11:26am 18.8 12.6 10.1 57 4.6 SW 33 50 18 27 1015.4 1015.4 0.4
29/11:00am 17.3 14.1 12.0 71 2.9 WSW 20 32 11 17 1016.0 1016.0 0.4
29/10:32am 17.2 9.4 11.0 67 3.3 SW 43 63 23 34 1015.7 1015.7 0.2
29/10:30am 19.1 11.5 9.0 52 5.3 SW 39 52 21 28 1015.8 1015.8 0.0
29/10:10am 18.4 10.9 9.5 56 4.7 SW 39 57 21 31 1015.7 1015.7 0.0
29/10:00am 18.6 10.8 8.3 51 5.3 WSW 39 50 21 27 1015.4 1015.4 0.0
29/09:41am 18.8 12.5 9.8 56 4.8 WSW 33 52 18 28 1015.3 1015.3 0.0
29/09:30am 17.8 11.0 9.4 58 4.4 WSW 35 46 19 25 1015.2 1015.2 0.0
29/09:00am 18.4 10.9 8.1 51 5.3 WSW 37 56 20 30 1014.9 1014.9 2.0
29/08:53am 18.5 11.2 7.0 47 5.8 WSW 35 56 19 30 1014.6 1014.6 2.0
29/08:30am 17.8 10.6 7.5 51 5.2 WSW 35 48 19 26 1014.5 1014.5 2.0
29/08:00am 17.4 9.8 7.5 52 5.0 WSW 37 54 20 29 1013.9 1013.9 2.0
29/07:30am 17.2 10.1 8.1 55 4.6 WSW 35 54 19 29 1013.4 1013.4 2.0
29/07:28am 17.2 10.6 8.4 56 4.5 WSW 33 54 18 29 1013.3 1013.3 2.0
29/07:00am 17.0 8.9 6.8 51 5.1 WSW 39 54 21 29 1013.0 1013.0 2.0
29/06:47am 17.3 8.9 7.4 52 5.0 WSW 41 65 22 35 1012.6 1012.6 2.0
29/06:30am 17.4 9.3 8.5 56 4.6 WSW 41 56 22 30 1012.5 1012.5 2.0
29/06:00am 16.8 9.0 11.1 69 3.1 WSW 43 61 23 33 1012.3 1012.3 2.0
29/05:41am 17.5 10.8 10.9 65 3.6 WSW 37 59 20 32 1011.7 1011.7 2.0
29/05:30am 17.3 10.5 10.7 65 3.5 WSW 37 50 20 27 1011.7 1011.7 2.0
29/05:00am 17.7 9.9 11.0 65 3.6 WSW 43 59 23 32 1011.4 1011.4 2.0
29/04:49am 17.9 11.5 12.1 69 3.2 W 37 56 20 30 1011.4 1011.4 2.0
29/04:30am 17.8 9.7 10.2 61 4.0 WSW 43 54 23 29 1011.3 1011.3 2.0
29/04:08am 18.2 11.0 10.6 61 4.1 WSW 39 59 21 32 1011.0 1010.9 2.0
29/04:00am 18.1 11.1 11.2 64 3.8 WSW 39 54 21 29 1011.0 1010.9 2.0
29/03:36am 18.0 12.6 10.9 63 3.8 WSW 30 48 16 26 1011.1 1011.0 2.0
29/03:30am 17.2 12.9 11.9 71 2.9 W 26 39 14 21 1011.2 1011.2 2.0
29/03:10am 17.9 13.1 11.5 66 3.5 WSW 28 54 15 29 1011.2 1011.2 1.8
29/03:00am 17.2 12.0 11.7 70 3.0 WSW 30 44 16 24 1011.4 1011.4 1.8
29/02:30am 16.9 12.1 11.8 72 2.8 WSW 28 35 15 19 1011.5 1011.5 1.8
29/02:02am 16.2 8.6 13.5 84 1.5 WSW 46 65 25 35 1011.7 1011.7 1.8
29/02:00am 16.4 9.1 13.5 83 1.6 WSW 44 65 24 35 1011.5 1011.5 1.8
29/01:54am 18.0 12.3 12.9 72 2.9 WSW 35 61 19 33 1011.3 1011.3 1.8
29/01:30am 17.9 13.6 11.9 68 3.3 W 26 37 14 20 1011.4 1011.4 1.8
29/01:00am 18.1 12.8 11.4 65 3.7 W 30 44 16 24 1011.4 1011.4 1.8
29/12:30am 18.2 14.9 11.7 66 3.6 W 20 28 11 15 1011.5 1011.5 1.8
29/12:00am 17.7 14.8 12.4 71 2.9 W 19 24 10 13 1011.8 1011.8 1.8
 
Date/Time
WST
Temp
°C
App
Temp
°C
Dew
Point
°C
Rel
Hum
%
Delta-T
°C
Wind Press
QNH
hPa
Press
MSL
hPa
Rain since
9am
mm
Dir  Spd
km/h
Gust
km/h
Spd
kts
Gust
kts
28/11:30pm 18.5 14.1 11.8 65 3.7 WSW 26 41 14 22 1012.3 1012.3 1.8
28/11:00pm 18.1 14.1 10.5 61 4.1 W 22 28 12 15 1012.5 1012.5 1.8
28/10:30pm 18.3 15.1 11.8 66 3.6 WSW 20 28 11 15 1012.6 1012.6 1.8
28/10:00pm 18.6 15.6 12.6 68 3.4 WSW 20 26 11 14 1012.6 1012.6 1.8
28/09:30pm 18.4 15.6 12.6 69 3.2 WSW 19 26 10 14 1012.6 1012.6 1.8
28/09:00pm 18.4 16.2 13.3 72 2.9 SW 17 20 9 11 1012.7 1012.7 1.8
28/08:30pm 17.7 18.4 16.0 90 1.0 NE 7 9 4 5 1012.9 1012.9 1.8
28/08:00pm 17.6 19.3 16.1 91 0.9 ENE 2 6 1 3 1012.9 1012.9 1.8
28/07:30pm 17.3 17.5 15.8 91 0.9 ESE 9 13 5 7 1012.6 1012.6 1.8
28/07:01pm 17.1 16.9 15.8 92 0.8 SE 11 13 6 7 1012.5 1012.5 1.6
28/07:00pm 17.2 17.5 15.9 92 0.8 SSE 9 13 5 7 1012.5 1012.5 1.6
28/06:31pm 17.7 17.7 16.2 91 0.9 SSE 11 17 6 9 1012.3 1012.3 0.4
28/06:30pm 17.7 17.7 16.2 91 0.9 SSE 11 17 6 9 1012.3 1012.3 0.2
28/06:00pm 17.7 17.7 16.2 91 0.9 S 11 15 6 8 1012.1 1012.1 0.0
28/05:30pm 18.0 16.3 15.8 87 1.3 SSW 19 24 10 13 1012.0 1012.0 0.0
28/05:00pm 20.1 18.7 16.9 82 1.9 SSW 20 24 11 13 1011.8 1011.8 0.0
28/04:30pm 21.2 18.3 15.1 68 3.6 SSW 24 30 13 16 1011.6 1011.6 0.0
28/04:00pm 21.1 17.5 15.2 69 3.5 SW 28 35 15 19 1011.6 1011.6 0.0
28/03:30pm 21.3 18.1 15.4 69 3.5 SW 26 33 14 18 1011.5 1011.5 0.0
28/03:00pm 21.9 18.3 14.3 62 4.5 SW 26 35 14 19 1011.4 1011.4 0.0
28/02:30pm 22.8 18.9 14.4 59 4.9 WSW 28 35 15 19 1011.3 1011.3 0.0
28/02:00pm 23.5 20.5 14.8 58 5.2 WSW 24 35 13 19 1011.1 1011.0 0.0
28/01:30pm 23.5 20.2 13.9 55 5.6 W 24 32 13 17 1011.2 1011.2 0.0
28/01:00pm 22.9 20.2 14.5 59 5.0 W 22 30 12 16 1011.9 1011.9 0.0
28/12:30pm 22.8 20.3 14.1 58 5.1 W 20 26 11 14 1012.2 1012.2 0.0
28/12:00pm 24.7 23.2 15.3 56 5.7 WNW 17 26 9 14 1012.7 1012.7 0.0
28/11:30am 23.6 21.3 14.6 57 5.3 NW 20 26 11 14 1013.3 1013.3 0.0
28/11:00am 22.7 20.5 14.3 59 4.9 WSW 19 22 10 12 1013.6 1013.6 0.0
28/10:30am 22.6 21.6 14.7 61 4.7 NNW 13 19 7 10 1014.2 1014.2 0.0
28/10:00am 21.6 20.5 15.2 67 3.8 NNE 15 20 8 11 1014.4 1014.4 0.0
28/09:30am 19.4 17.1 14.6 74 2.8 NNE 20 26 11 14 1014.9 1014.9 0.0
28/09:00am 18.3 16.0 14.6 79 2.1 NNE 20 24 11 13 1015.0 1015.0 0.2
28/08:30am 16.3 13.7 13.8 85 1.4 NNE 20 26 11 14 1014.8 1014.8 0.2
28/08:00am 15.3 12.5 13.3 88 1.1 NNE 20 26 11 14 1014.7 1014.7 0.2
28/07:30am 14.4 11.5 12.8 90 0.9 NNE 20 24 11 13 1014.8 1014.8 0.2
28/07:00am 14.3 11.4 12.9 91 0.8 NNE 20 26 11 14 1014.6 1014.6 0.2
28/06:30am 14.6 11.4 13.0 90 0.9 NNE 22 26 12 14 1014.4 1014.4 0.2
28/06:00am 14.6 11.7 13.0 90 0.9 NNE 20 26 11 14 1014.3 1014.3 0.2
28/05:30am 14.7 11.9 13.1 90 0.9 NNE 20 26 11 14 1014.4 1014.4 0.2
28/05:00am 14.5 11.6 12.9 90 0.9 NNE 20 24 11 13 1014.6 1014.6 0.2
28/04:30am 14.4 11.5 13.0 91 0.8 NNE 20 22 11 12 1014.6 1014.6 0.2
28/04:00am 14.2 12.2 12.8 91 0.8 NNE 15 19 8 10 1014.7 1014.7 0.2
28/03:30am 14.5 12.2 13.0 91 0.8 NNE 17 20 9 11 1014.6 1014.6 0.2
28/03:00am 14.4 11.5 13.0 91 0.8 NNE 20 24 11 13 1014.8 1014.8 0.2
28/02:30am 13.9 11.1 12.5 91 0.8 NNE 19 20 10 11 1014.9 1014.9 0.2
28/02:00am 13.9 13.0 12.5 91 0.8 NNE 9 11 5 6 1015.1 1015.1 0.2
28/01:30am 14.8 13.8 13.3 91 0.8 NNE 11 13 6 7 1015.3 1015.3 0.2
28/01:00am 14.9 13.0 13.1 89 1.0 NNE 15 19 8 10 1015.7 1015.7 0.2
28/12:30am 15.1 13.7 13.3 89 1.0 NNE 13 13 7 7 1015.9 1015.9 0.2
28/12:00am 15.3 16.3 13.3 88 1.1 CALM 0 2 0 1 1016.1 1016.1 0.2
 
Date/Time
WST
Temp
°C
App
Temp
°C
Dew
Point
°C
Rel
Hum
%
Delta-T
°C
Wind Press
QNH
hPa
Press
MSL
hPa
Rain since
9am
mm
Dir  Spd
km/h
Gust
km/h
Spd
kts
Gust
kts
27/11:30pm 15.6 16.6 13.3 86 1.3 CALM 0 0 0 0 1016.4 1016.4 0.2
27/11:00pm 15.9 16.7 13.7 87 1.2 NE 2 7 1 4 1016.6 1016.6 0.2
27/10:30pm 15.9 17.1 13.7 87 1.2 CALM 0 0 0 0 1016.8 1016.8 0.2
27/10:00pm 15.6 15.2 12.4 81 1.8 SE 6 7 3 4 1017.0 1017.0 0.2
27/09:30pm 16.4 16.2 13.1 81 1.8 SE 6 7 3 4 1017.2 1017.2 0.2
27/09:00pm 16.8 16.3 13.7 82 1.8 ESE 9 11 5 6 1017.3 1017.3 0.2
27/08:30pm 16.9 16.6 13.4 80 2.0 ESE 7 9 4 5 1017.5 1017.5 0.2
27/08:00pm 17.3 17.2 13.2 77 2.3 SE 6 7 3 4 1017.6 1017.6 0.2
27/07:30pm 18.5 18.1 14.0 75 2.6 SSE 9 9 5 5 1017.5 1017.5 0.2
27/07:00pm 19.1 19.1 14.1 73 2.9 S 7 9 4 5 1017.4 1017.4 0.2
27/06:30pm 19.7 18.9 14.1 70 3.2 S 11 11 6 6 1017.1 1017.1 0.2
27/06:00pm 20.2 19.4 14.1 68 3.5 S 11 11 6 6 1016.7 1016.7 0.2
27/05:30pm 21.5 20.3 13.9 62 4.4 SSW 13 13 7 7 1016.4 1016.4 0.2
27/05:00pm 23.4 21.9 13.0 52 6.0 SSW 13 17 7 9 1016.1 1016.1 0.2
27/04:30pm 24.1 22.6 13.0 50 6.4 SW 13 17 7 9 1016.2 1016.2 0.2
27/04:00pm 24.7 22.8 13.0 48 6.8 SW 15 19 8 10 1016.3 1016.3 0.2
27/03:30pm 25.5 23.1 12.7 45 7.4 SW 17 22 9 12 1016.5 1016.5 0.2
27/03:00pm 26.1 24.0 12.5 42 7.9 SW 15 20 8 11 1016.6 1016.6 0.2
27/02:30pm 25.9 24.2 12.4 43 7.8 SW 13 20 7 11 1016.7 1016.7 0.2
27/02:00pm 26.4 25.1 10.1 36 9.1 NNW 7 15 4 8 1017.1 1017.1 0.2
27/01:30pm 26.4 24.9 10.5 37 8.9 WNW 9 15 5 8 1017.4 1017.4 0.2
27/01:00pm 26.4 25.5 11.3 39 8.6 WNW 7 11 4 6 1017.9 1017.9 0.2
27/12:30pm 25.3 24.6 11.5 42 7.8 WSW 6 9 3 5 1018.4 1018.4 0.2
27/12:00pm 25.0 24.4 12.2 44 7.3 SE 7 17 4 9 1018.8 1018.8 0.2
27/11:30am 24.3 23.3 12.3 47 6.9 ESE 9 15 5 8 1019.5 1019.5 0.2

Other formats

Comma delimited format used in spreadsheet applications
http://www.bom.gov.au/fwo/IDW60801/IDW60801.94403.axf

JavaScript Object Notation format (JSON) in row-major order
http://www.bom.gov.au/fwo/IDW60801/IDW60801.94403.json

Data quality

Most of these data are generated automatically and are frequently updated. Quality checks on data are not normally performed. It is possible for incorrect values to appear. Refer to information at About Latest Weather Observations and please check the disclaimer before using these data.